Time;durP1;ratioP1;P1;durP2;ratioP2;P2;SDS_P1;SDS_P2;PMS_P1;PMS_P2;Temp;Humidity;BMP_temperature;BMP_pressure;BME280_temperature;BME280_humidity;BME280_pressure;Samples;Min_cycle;Max_cycle;Signal;HPM_P1;HPM_P2
2021/12/21 15:52:06;;;;;;;23.87;11.80;;;;;;;0.42;81.80;102465.47;5294831;27;21433;-77
2021/12/21 15:54:39;;;;;;;22.57;11.10;;;;;;;0.48;81.74;102476.69;5302389;28;20277;-76
2021/12/21 15:57:12;;;;;;;23.80;11.87;;;;;;;0.34;81.67;102483.44;5302211;28;20020;-78
2021/12/21 15:59:45;;;;;;;24.33;12.13;;;;;;;0.45;82.06;102479.25;5302604;28;20394;-77
2021/12/21 16:02:19;;;;;;;22.43;11.57;;;;;;;0.42;81.93;102475.78;5312246;28;20031;-78
2021/12/21 16:04:51;;;;;;;;;;;;;;;0.62;82.09;102472.50;5310763;27;20630;-78
2021/12/21 16:07:23;;;;;;;23.60;10.87;;;;;;;0.29;82.21;102467.06;5326042;28;19954;-78
2021/12/21 16:09:55;;;;;;;23.87;12.13;;;;;;;0.30;81.85;102455.88;5322129;27;20110;-78
2021/12/21 16:12:26;;;;;;;17.47;11.73;;;;;;;0.23;81.87;102442.06;5319471;27;20047;-79
2021/12/21 16:14:58;;;;;;;20.97;10.77;;;;;;;0.34;81.54;102457.66;5314191;28;20435;-80
2021/12/21 16:17:29;;;;;;;19.20;11.10;;;;;;;0.30;81.06;102456.75;5307730;28;20042;-79
2021/12/21 16:20:00;;;;;;;22.20;11.00;;;;;;;0.24;81.74;102467.03;5312090;28;20020;-79
2021/12/21 16:22:40;;;;;;;19.33;10.47;;;;;;;0.35;82.00;102464.53;5311440;28;20645;-78
2021/12/21 16:25:13;;;;;;;18.97;11.00;;;;;;;0.09;81.07;102429.06;5310695;28;20022;-78
2021/12/21 16:27:45;;;;;;;20.33;10.03;;;;;;;-0.19;81.52;102393.59;5310419;28;20076;-78
2021/12/21 16:30:27;;;;;;;20.63;10.90;;;;;;;0.06;81.45;102422.19;5316667;27;20027;-77
2021/12/21 16:32:59;;;;;;;20.77;10.87;;;;;;;0.02;81.73;102404.94;5316127;27;20035;-77
2021/12/21 16:35:31;;;;;;;17.57;9.90;;;;;;;0.21;81.26;102436.06;5311927;28;20012;-77
2021/12/21 16:38:02;;;;;;;21.37;10.87;;;;;;;0.17;81.05;102434.31;5312053;28;20012;-77
2021/12/21 16:40:34;;;;;;;23.47;10.93;;;;;;;0.11;81.59;102428.25;5305905;28;20008;-77
2021/12/21 16:43:06;;;;;;;19.20;11.33;;;;;;;0.34;81.11;102474.00;5299350;28;20475;-77
2021/12/21 16:45:38;;;;;;;19.47;11.13;;;;;;;0.28;81.90;102485.97;5307072;28;20017;-77
2021/12/21 16:48:11;;;;;;;21.77;10.33;;;;;;;0.01;81.87;102453.88;5316986;27;20027;-77
2021/12/21 16:50:42;;;;;;;23.83;12.03;;;;;;;-0.09;81.73;102443.50;5310400;28;20040;-77
2021/12/21 16:53:14;;;;;;;22.23;11.43;;;;;;;-0.01;81.44;102441.00;5324375;28;20034;-77
2021/12/21 16:55:46;;;;;;;16.23;10.47;;;;;;;0.11;81.41;102455.72;5323443;28;20685;-78
2021/12/21 16:58:23;;;;;;;22.27;10.87;;;;;;;0.24;81.87;102501.38;5308952;28;20365;-76
2021/12/21 17:00:56;;;;;;;18.53;11.03;;;;;;;0.23;81.88;102486.75;5295775;28;20103;-77
2021/12/21 17:03:28;;;;;;;19.20;10.77;;;;;;;0.08;81.90;102466.00;5297191;27;20052;-78
2021/12/21 17:05:59;;;;;;;22.00;11.70;;;;;;;0.20;81.76;102497.03;5297242;28;20059;-78
2021/12/21 17:08:39;;;;;;;26.30;11.03;;;;;;;0.21;81.97;102506.50;5297325;28;20031;-78
2021/12/21 17:11:13;;;;;;;21.67;10.63;;;;;;;-0.26;82.31;102472.50;5301426;28;20016;-77
2021/12/21 17:13:45;;;;;;;18.52;11.13;;;;;;;0.04;82.37;102508.00;5282852;28;20427;-78
2021/12/21 17:16:18;;;;;;;21.33;11.67;;;;;;;0.05;81.69;102499.47;5305241;28;20020;-78
2021/12/21 17:18:49;;;;;;;23.43;10.43;;;;;;;0.11;81.70;102507.25;5283964;28;20026;-78
2021/12/21 17:21:21;;;;;;;19.10;10.00;;;;;;;-0.06;81.90;102479.59;5295434;28;20023;-78
2021/12/21 17:23:52;;;;;;;19.60;9.53;;;;;;;-0.30;81.51;102452.72;5296983;28;20104;-78
2021/12/21 17:26:24;;;;;;;17.23;10.27;;;;;;;-0.06;81.88;102476.16;5295707;28;20479;-78
2021/12/21 17:28:57;;;;;;;21.47;10.13;;;;;;;0.11;81.54;102514.97;5294844;28;20028;-77
2021/12/21 17:31:29;;;;;;;16.00;9.63;;;;;;;-0.28;82.00;102469.03;5289198;28;20047;-78
2021/12/21 17:34:05;;;;;;;18.53;10.67;;;;;;;0.02;82.33;102514.88;5290782;28;20032;-78
2021/12/21 17:36:36;;;;;;;18.93;9.63;;;;;;;-0.37;82.27;102450.91;5287659;28;20012;-77
2021/12/21 17:39:08;;;;;;;22.47;10.77;;;;;;;-0.25;82.34;102466.50;5285897;28;20017;-76
2021/12/21 17:41:39;;;;;;;17.90;11.10;;;;;;;-0.30;82.82;102477.59;5288636;28;20017;-77
2021/12/21 17:44:10;;;;;;;23.00;11.53;;;;;;;-0.17;82.15;102483.72;5282250;28;20638;-77
2021/12/21 17:46:42;;;;;;;21.70;12.13;;;;;;;0.09;82.39;102516.66;5274345;28;20055;-76
2021/12/21 17:49:13;;;;;;;27.30;11.23;;;;;;;-0.23;82.63;102492.28;5277153;28;20599;-77
2021/12/21 17:51:44;;;;;;;23.00;11.67;;;;;;;-0.13;82.46;102481.25;5285142;28;20039;-78
2021/12/21 17:54:16;;;;;;;21.30;11.30;;;;;;;-0.19;82.30;102464.84;5286082;28;21783;-78
2021/12/21 17:56:47;;;;;;;24.43;12.27;;;;;;;-0.34;83.03;102471.53;5285168;28;20032;-78
2021/12/21 17:59:58;;;;;;;23.73;13.37;;;;;;;-0.04;83.38;102507.94;5287256;28;20028;-78
2021/12/21 18:02:45;;;;;;;22.93;13.33;;;;;;;-0.47;82.94;102420.75;5287015;28;20085;-78
2021/12/21 18:05:17;;;;;;;28.20;12.47;;;;;;;-0.18;82.77;102477.75;5287634;28;20670;-78
2021/12/21 18:07:48;;;;;;;26.10;13.23;;;;;;;-0.29;82.40;102474.16;5288363;28;20028;-78
2021/12/21 18:11:14;;;;;;;27.00;15.20;;;;;;;-0.10;82.71;102501.00;5283076;28;20527;-79
2021/12/21 18:13:43;;;;;;;25.57;13.93;;;;;;;-0.64;82.39;102453.13;5289904;28;20039;-79
2021/12/21 18:16:16;;;;;;;25.70;14.20;;;;;;;-0.63;82.03;102443.72;5294414;28;20039;-78
2021/12/21 18:18:47;;;;;;;24.90;14.30;;;;;;;-0.53;82.05;102491.03;5287968;28;20059;-77
2021/12/21 18:21:19;;;;;;;30.33;14.93;;;;;;;-0.35;82.85;102529.03;5294655;28;20608;-77
2021/12/21 18:23:50;;;;;;;30.00;16.23;;;;;;;-0.49;82.88;102497.97;5292527;28;20499;-77
2021/12/21 18:26:21;;;;;;;30.93;15.50;;;;;;;-0.47;83.12;102491.09;5288385;28;20504;-78
2021/12/21 18:28:56;;;;;;;34.37;16.57;;;;;;;-0.46;83.01;102486.81;5293226;28;20054;-81
2021/12/21 18:31:56;;;;;;;32.88;16.63;;;;;;;-0.45;83.44;102485.97;5275055;28;20024;-79
2021/12/21 18:37:42;;;;;;;30.07;16.40;;;;;;;-0.67;84.25;102520.00;5285648;28;20051;-79
2021/12/21 18:40:24;;;;;;;28.17;15.77;;;;;;;-0.44;84.60;102531.47;5284715;28;20035;-79
2021/12/21 18:43:03;;;;;;;28.40;15.17;;;;;;;-0.72;84.19;102493.34;5286229;28;20567;-79
2021/12/21 18:45:42;;;;;;;29.50;14.93;;;;;;;-0.53;84.04;102527.94;5284104;28;20023;-79
2021/12/21 18:56:16;;;;;;;27.63;14.50;;;;;;;-0.99;84.89;102463.78;5283403;28;20147;-79
2021/12/21 18:59:09;;;;;;;26.30;13.37;;;;;;;-0.71;84.12;102496.75;5283176;28;20036;-78
2021/12/21 19:01:42;;;;;;;25.43;14.40;;;;;;;-0.85;84.24;102484.56;5285423;28;20644;-79
2021/12/21 19:04:32;;;;;;;;;;;;;;;;;;;;;
2021/12/21 19:07:07;;;;;;;27.93;15.87;;;;;;;-1.04;84.89;102445.72;5280943;28;20024;-78
2021/12/21 19:12:13;;;;;;;;;;;;;;;-0.43;84.74;102535.75;5216388;28;20060;-73
2021/12/21 19:14:45;;;;;;;26.53;13.83;;;;;;;-0.63;84.36;102529.50;5218441;28;20634;-74
2021/12/21 19:17:16;;;;;;;32.03;16.23;;;;;;;-0.87;85.02;102512.84;5217438;28;20030;-75
2021/12/21 19:19:47;;;;;;;29.93;16.00;;;;;;;-0.75;85.11;102530.19;5218199;28;20037;-74
2021/12/21 19:22:18;;;;;;;40.47;17.43;;;;;;;-0.82;85.24;102541.22;5218443;28;20120;-72
2021/12/21 19:24:50;;;;;;;37.43;19.10;;;;;;;-0.67;83.94;102532.88;5222754;28;20041;-73
2021/12/21 19:27:21;;;;;;;30.87;17.07;;;;;;;-0.63;84.28;102536.38;5217339;28;20626;-71
2021/12/21 19:29:52;;;;;;;32.10;17.43;;;;;;;-0.86;84.50;102524.00;5218591;28;20037;-72
2021/12/21 19:32:26;;;;;;;38.73;20.50;;;;;;;-0.95;85.38;102527.31;5225939;28;20041;-72
2021/12/21 19:34:57;;;;;;;41.90;21.63;;;;;;;-1.04;85.60;102535.75;5217473;28;20547;-71
2021/12/21 19:37:29;;;;;;;36.57;20.23;;;;;;;-0.84;85.37;102529.19;5219149;28;20279;-71
2021/12/21 19:40:00;;;;;;;31.47;18.27;;;;;;;-0.96;85.14;102527.28;5225748;28;20102;-72
2021/12/21 19:42:31;;;;;;;48.13;18.87;;;;;;;-1.14;85.50;102505.56;5217688;28;20038;-73
2021/12/21 19:45:04;;;;;;;38.63;20.20;;;;;;;-1.09;86.54;102532.22;5217875;28;20033;-71
2021/12/21 19:47:35;;;;;;;33.93;17.87;;;;;;;-1.17;86.23;102526.94;5217996;28;20144;-74
2021/12/21 19:50:08;;;;;;;39.73;20.10;;;;;;;-1.11;86.30;102539.91;5217432;28;20570;-74
2021/12/21 19:52:39;;;;;;;41.70;19.60;;;;;;;-1.31;86.49;102531.88;5217853;28;20104;-73
2021/12/21 19:55:10;;;;;;;35.13;18.63;;;;;;;-1.14;87.04;102533.84;5216652;28;20052;-73
2021/12/21 19:57:42;;;;;;;32.97;17.37;;;;;;;-1.10;86.77;102526.22;5215706;28;20029;-73
2021/12/21 20:00:17;;;;;;;38.57;19.27;;;;;;;-1.07;86.29;102524.53;5217243;28;20041;-73
2021/12/21 20:02:49;;;;;;;34.75;18.58;;;;;;;-1.11;86.30;102539.03;5216270;28;20904;-72
2021/12/21 20:05:21;;;;;;;35.67;19.43;;;;;;;-1.20;86.22;102538.91;5217006;28;20519;-72
2021/12/21 20:07:55;;;;;;;37.27;20.17;;;;;;;-1.29;86.82;102537.88;5217714;28;20044;-72
2021/12/21 20:10:29;;;;;;;30.90;17.80;;;;;;;-1.23;85.66;102526.84;5215800;28;20117;-73
2021/12/21 20:13:11;;;;;;;33.30;18.88;;;;;;;-1.32;86.79;102530.13;5217105;28;20040;-72
2021/12/21 20:15:45;;;;;;;35.13;19.83;;;;;;;-1.36;86.96;102530.91;5216008;28;20048;-72
2021/12/21 20:18:18;;;;;;;31.33;17.60;;;;;;;-1.41;87.12;102540.22;5212658;28;20090;-72
2021/12/21 20:20:50;;;;;;;35.30;17.17;;;;;;;-1.18;86.02;102534.63;5214199;28;20037;-73
2021/12/21 20:23:21;;;;;;;37.77;18.00;;;;;;;-1.16;86.34;102531.25;5215942;28;20060;-73
2021/12/21 20:25:52;;;;;;;35.67;17.40;;;;;;;-1.31;86.60;102531.00;5214369;28;20065;-73
2021/12/21 20:28:24;;;;;;;36.10;17.47;;;;;;;-1.22;86.36;102532.03;5215266;28;20663;-73
2021/12/21 20:30:55;;;;;;;33.43;19.40;;;;;;;-1.23;85.98;102530.28;5215748;28;20040;-72
2021/12/21 20:33:27;;;;;;;42.27;19.93;;;;;;;-1.33;86.42;102528.41;5215823;28;20099;-72
2021/12/21 20:35:58;;;;;;;41.33;20.20;;;;;;;-1.35;85.99;102533.53;5225218;28;20095;-73
2021/12/21 20:38:30;;;;;;;44.50;20.77;;;;;;;-1.25;86.07;102534.53;5230426;28;20116;-73
2021/12/21 20:41:02;;;;;;;36.03;19.80;;;;;;;-1.41;86.56;102542.81;5228939;28;20021;-73
2021/12/21 20:43:33;;;;;;;34.00;19.70;;;;;;;-1.47;86.20;102531.56;5229579;28;20025;-74
2021/12/21 20:46:04;;;;;;;39.33;20.80;;;;;;;-1.47;86.74;102534.16;5231657;28;20029;-75
2021/12/21 20:48:36;;;;;;;41.93;20.17;;;;;;;-1.54;87.34;102534.03;5234174;28;20156;-74
2021/12/21 20:51:08;;;;;;;37.20;18.80;;;;;;;-1.65;87.74;102532.13;5235075;28;20460;-75
2021/12/21 20:53:39;;;;;;;36.40;17.93;;;;;;;-1.73;87.07;102516.53;5231943;28;20052;-74
2021/12/21 20:56:10;;;;;;;37.93;21.57;;;;;;;-1.74;86.62;102524.22;5231665;28;20492;-74
2021/12/21 20:58:42;;;;;;;36.57;18.17;;;;;;;-1.65;87.17;102536.38;5232098;28;20084;-75
2021/12/21 21:01:13;;;;;;;43.60;20.73;;;;;;;-1.63;87.35;102534.72;5231005;28;20383;-76
2021/12/21 21:03:44;;;;;;;43.33;19.87;;;;;;;-1.62;87.49;102528.72;5230033;28;20043;-70
2021/12/21 21:06:18;;;;;;;42.67;20.63;;;;;;;-1.62;87.94;102539.00;5231245;28;20514;-74
2021/12/21 21:08:50;;;;;;;43.55;24.15;;;;;;;-1.80;87.87;102539.53;5230810;28;20049;-74
2021/12/21 21:11:25;;;;;;;41.43;22.80;;;;;;;-1.82;88.04;102536.94;5230219;28;20172;-73
2021/12/21 21:13:56;;;;;;;42.63;20.97;;;;;;;-1.87;87.96;102525.72;5230624;28;21425;-76
2021/12/21 21:16:28;;;;;;;38.60;20.30;;;;;;;-1.82;87.92;102530.06;5230748;28;20299;-78
2021/12/21 21:19:00;;;;;;;40.80;22.10;;;;;;;-1.80;87.77;102532.69;5247310;28;20021;-74
2021/12/21 21:21:31;;;;;;;46.47;21.77;;;;;;;-1.82;87.81;102534.38;5230313;28;20052;-72
2021/12/21 21:24:03;;;;;;;45.00;23.53;;;;;;;-1.72;88.15;102545.69;5230471;28;20037;-73
2021/12/21 21:26:35;;;;;;;48.97;26.40;;;;;;;-1.85;87.48;102535.16;5233080;28;20033;-71
